sensor_id;sensor_type;location;lat;lon;timestamp;temperature;humidity
54898;DHT22;40800;52.704;6.398;2023-03-14T00:00:35;11.20;99.90
54898;DHT22;40800;52.704;6.398;2023-03-14T00:03:01;11.30;99.90
54898;DHT22;40800;52.704;6.398;2023-03-14T00:05:27;11.30;99.90
54898;DHT22;40800;52.704;6.398;2023-03-14T00:07:52;11.20;99.90
54898;DHT22;40800;52.704;6.398;2023-03-14T00:10:18;11.20;99.90
54898;DHT22;40800;52.704;6.398;2023-03-14T00:12:44;11.20;99.90
54898;DHT22;40800;52.704;6.398;2023-03-14T00:15:11;11.30;99.90
54898;DHT22;40800;52.704;6.398;2023-03-14T00:17:36;11.20;99.90
54898;DHT22;40800;52.704;6.398;2023-03-14T00:20:04;11.30;99.90
54898;DHT22;40800;52.704;6.398;2023-03-14T00:22:37;11.30;99.90
54898;DHT22;40800;52.704;6.398;2023-03-14T00:25:04;11.30;99.90
54898;DHT22;40800;52.704;6.398;2023-03-14T00:27:30;11.30;99.90
54898;DHT22;40800;52.704;6.398;2023-03-14T00:29:55;11.40;99.90
54898;DHT22;40800;52.704;6.398;2023-03-14T00:32:21;11.40;99.90
54898;DHT22;40800;52.704;6.398;2023-03-14T00:34:47;11.40;99.90
54898;DHT22;40800;52.704;6.398;2023-03-14T00:37:12;11.50;99.90
54898;DHT22;40800;52.704;6.398;2023-03-14T00:39:38;11.30;99.90
54898;DHT22;40800;52.704;6.398;2023-03-14T00:42:04;11.50;99.90
54898;DHT22;40800;52.704;6.398;2023-03-14T00:44:29;11.30;99.90
54898;DHT22;40800;52.704;6.398;2023-03-14T00:46:55;11.20;99.90
54898;DHT22;40800;52.704;6.398;2023-03-14T00:49:20;11.10;99.90
54898;DHT22;40800;52.704;6.398;2023-03-14T00:51:46;11.10;99.90
54898;DHT22;40800;52.704;6.398;2023-03-14T00:54:13;11.30;99.90
54898;DHT22;40800;52.704;6.398;2023-03-14T00:56:38;11.20;99.90
54898;DHT22;40800;52.704;6.398;2023-03-14T00:59:04;10.90;99.90
54898;DHT22;40800;52.704;6.398;2023-03-14T01:01:29;11.20;99.90
54898;DHT22;40800;52.704;6.398;2023-03-14T01:03:55;10.90;99.90
54898;DHT22;40800;52.704;6.398;2023-03-14T01:06:23;10.90;99.90
54898;DHT22;40800;52.704;6.398;2023-03-14T01:08:50;11.00;99.90
54898;DHT22;40800;52.704;6.398;2023-03-14T01:11:22;11.10;99.90
54898;DHT22;40800;52.704;6.398;2023-03-14T01:13:47;11.00;99.90
54898;DHT22;40800;52.704;6.398;2023-03-14T01:16:14;11.20;99.90
54898;DHT22;40800;52.704;6.398;2023-03-14T01:18:41;11.10;99.90
54898;DHT22;40800;52.704;6.398;2023-03-14T01:21:17;11.30;99.90
54898;DHT22;40800;52.704;6.398;2023-03-14T01:23:44;11.20;99.90
54898;DHT22;40800;52.704;6.398;2023-03-14T01:26:11;11.10;99.90
54898;DHT22;40800;52.704;6.398;2023-03-14T01:28:38;11.10;99.90
54898;DHT22;40800;52.704;6.398;2023-03-14T01:31:09;11.20;99.90
54898;DHT22;40800;52.704;6.398;2023-03-14T01:33:35;11.20;99.90
54898;DHT22;40800;52.704;6.398;2023-03-14T01:36:01;11.00;99.90
54898;DHT22;40800;52.704;6.398;2023-03-14T01:38:31;10.90;99.90
54898;DHT22;40800;52.704;6.398;2023-03-14T01:40:57;11.00;99.90
54898;DHT22;40800;52.704;6.398;2023-03-14T01:43:23;10.80;99.90
54898;DHT22;40800;52.704;6.398;2023-03-14T01:46:34;10.90;99.90
54898;DHT22;40800;52.704;6.398;2023-03-14T01:48:59;10.80;99.90
54898;DHT22;40800;52.704;6.398;2023-03-14T01:51:30;10.70;99.90
54898;DHT22;40800;52.704;6.398;2023-03-14T01:54:18;10.70;99.90
54898;DHT22;40800;52.704;6.398;2023-03-14T01:56:48;10.80;99.90
54898;DHT22;40800;52.704;6.398;2023-03-14T01:59:15;10.90;99.90
54898;DHT22;40800;52.704;6.398;2023-03-14T02:01:43;10.90;99.90
54898;DHT22;40800;52.704;6.398;2023-03-14T02:04:10;10.80;99.90
54898;DHT22;40800;52.704;6.398;2023-03-14T02:06:47;10.80;99.90
54898;DHT22;40800;52.704;6.398;2023-03-14T02:09:14;10.90;99.90
54898;DHT22;40800;52.704;6.398;2023-03-14T02:11:40;11.00;99.90
54898;DHT22;40800;52.704;6.398;2023-03-14T02:14:05;10.90;99.90
54898;DHT22;40800;52.704;6.398;2023-03-14T02:16:32;10.80;99.90
54898;DHT22;40800;52.704;6.398;2023-03-14T02:18:59;10.90;99.90
54898;DHT22;40800;52.704;6.398;2023-03-14T02:22:02;10.90;99.90
54898;DHT22;40800;52.704;6.398;2023-03-14T02:24:48;10.70;99.90
54898;DHT22;40800;52.704;6.398;2023-03-14T02:27:19;10.80;99.90
54898;DHT22;40800;52.704;6.398;2023-03-14T02:29:55;10.60;99.90
54898;DHT22;40800;52.704;6.398;2023-03-14T02:32:24;10.50;99.90
54898;DHT22;40800;52.704;6.398;2023-03-14T02:34:53;10.40;99.90
54898;DHT22;40800;52.704;6.398;2023-03-14T02:37:21;10.40;99.90
54898;DHT22;40800;52.704;6.398;2023-03-14T02:39:47;10.30;99.90
54898;DHT22;40800;52.704;6.398;2023-03-14T02:42:15;10.50;99.90
54898;DHT22;40800;52.704;6.398;2023-03-14T02:47:33;10.40;99.90
54898;DHT22;40800;52.704;6.398;2023-03-14T02:50:03;10.40;99.90
54898;DHT22;40800;52.704;6.398;2023-03-14T02:52:29;10.40;99.90
54898;DHT22;40800;52.704;6.398;2023-03-14T02:54:55;10.10;99.90
54898;DHT22;40800;52.704;6.398;2023-03-14T02:57:21;10.20;99.90
54898;DHT22;40800;52.704;6.398;2023-03-14T02:59:46;10.40;99.90
54898;DHT22;40800;52.704;6.398;2023-03-14T03:02:12;10.30;99.90
54898;DHT22;40800;52.704;6.398;2023-03-14T03:04:37;10.20;99.90
54898;DHT22;40800;52.704;6.398;2023-03-14T03:07:03;9.80;99.90
54898;DHT22;40800;52.704;6.398;2023-03-14T03:09:28;10.30;99.90
54898;DHT22;40800;52.704;6.398;2023-03-14T03:11:54;9.80;99.90
54898;DHT22;40800;52.704;6.398;2023-03-14T03:14:19;9.90;99.90
54898;DHT22;40800;52.704;6.398;2023-03-14T03:16:45;10.30;99.90
54898;DHT22;40800;52.704;6.398;2023-03-14T03:19:10;9.60;99.90
54898;DHT22;40800;52.704;6.398;2023-03-14T03:21:36;10.00;99.90
54898;DHT22;40800;52.704;6.398;2023-03-14T03:24:01;10.20;99.90
54898;DHT22;40800;52.704;6.398;2023-03-14T03:26:27;9.70;99.90
54898;DHT22;40800;52.704;6.398;2023-03-14T03:28:52;10.10;99.90
54898;DHT22;40800;52.704;6.398;2023-03-14T03:31:18;9.80;99.90
54898;DHT22;40800;52.704;6.398;2023-03-14T03:33:44;10.30;99.90
54898;DHT22;40800;52.704;6.398;2023-03-14T03:36:10;9.80;99.90
54898;DHT22;40800;52.704;6.398;2023-03-14T03:38:36;9.90;99.90
54898;DHT22;40800;52.704;6.398;2023-03-14T03:41:06;9.70;99.90
54898;DHT22;40800;52.704;6.398;2023-03-14T03:43:31;9.90;99.90
54898;DHT22;40800;52.704;6.398;2023-03-14T03:45:57;9.80;99.90
54898;DHT22;40800;52.704;6.398;2023-03-14T03:48:23;10.30;99.90
54898;DHT22;40800;52.704;6.398;2023-03-14T03:50:48;10.00;99.90
54898;DHT22;40800;52.704;6.398;2023-03-14T03:53:14;10.30;99.90
54898;DHT22;40800;52.704;6.398;2023-03-14T03:55:42;9.90;99.90
54898;DHT22;40800;52.704;6.398;2023-03-14T03:58:08;10.10;99.90
54898;DHT22;40800;52.704;6.398;2023-03-14T04:00:34;10.10;99.90
54898;DHT22;40800;52.704;6.398;2023-03-14T04:02:59;9.80;99.90
54898;DHT22;40800;52.704;6.398;2023-03-14T04:05:25;10.00;99.90
54898;DHT22;40800;52.704;6.398;2023-03-14T04:07:51;9.70;99.90
54898;DHT22;40800;52.704;6.398;2023-03-14T04:10:17;9.60;99.90
54898;DHT22;40800;52.704;6.398;2023-03-14T04:12:42;9.90;99.90
54898;DHT22;40800;52.704;6.398;2023-03-14T04:15:08;9.70;99.90
54898;DHT22;40800;52.704;6.398;2023-03-14T04:17:34;9.60;99.90
54898;DHT22;40800;52.704;6.398;2023-03-14T04:19:59;9.60;99.90
54898;DHT22;40800;52.704;6.398;2023-03-14T04:22:25;10.30;99.90
54898;DHT22;40800;52.704;6.398;2023-03-14T04:24:50;10.30;99.90
54898;DHT22;40800;52.704;6.398;2023-03-14T04:27:16;10.40;99.90
54898;DHT22;40800;52.704;6.398;2023-03-14T04:29:42;10.20;99.90
54898;DHT22;40800;52.704;6.398;2023-03-14T04:32:07;9.60;99.90
54898;DHT22;40800;52.704;6.398;2023-03-14T04:34:33;9.70;99.90
54898;DHT22;40800;52.704;6.398;2023-03-14T04:36:58;9.90;99.90
54898;DHT22;40800;52.704;6.398;2023-03-14T04:39:24;9.70;99.90
54898;DHT22;40800;52.704;6.398;2023-03-14T04:41:50;9.80;99.90
54898;DHT22;40800;52.704;6.398;2023-03-14T04:44:15;10.30;99.90
54898;DHT22;40800;52.704;6.398;2023-03-14T04:46:41;9.90;99.90
54898;DHT22;40800;52.704;6.398;2023-03-14T04:49:06;10.10;99.90
54898;DHT22;40800;52.704;6.398;2023-03-14T04:51:32;9.80;99.90
54898;DHT22;40800;52.704;6.398;2023-03-14T04:53:57;9.70;99.90
54898;DHT22;40800;52.704;6.398;2023-03-14T04:56:23;9.70;99.90
54898;DHT22;40800;52.704;6.398;2023-03-14T04:58:49;10.30;99.90
54898;DHT22;40800;52.704;6.398;2023-03-14T05:01:14;10.30;99.90
54898;DHT22;40800;52.704;6.398;2023-03-14T05:03:40;9.90;99.90
54898;DHT22;40800;52.704;6.398;2023-03-14T05:06:06;10.20;99.90
54898;DHT22;40800;52.704;6.398;2023-03-14T05:08:31;9.80;99.90
54898;DHT22;40800;52.704;6.398;2023-03-14T05:10:57;10.50;99.90
54898;DHT22;40800;52.704;6.398;2023-03-14T05:13:23;9.80;99.90
54898;DHT22;40800;52.704;6.398;2023-03-14T05:15:49;10.30;99.90
54898;DHT22;40800;52.704;6.398;2023-03-14T05:18:19;10.30;99.90
54898;DHT22;40800;52.704;6.398;2023-03-14T05:20:44;10.20;99.90
54898;DHT22;40800;52.704;6.398;2023-03-14T05:23:10;10.30;99.90
54898;DHT22;40800;52.704;6.398;2023-03-14T05:25:36;10.20;99.90
54898;DHT22;40800;52.704;6.398;2023-03-14T05:28:01;10.40;99.90
54898;DHT22;40800;52.704;6.398;2023-03-14T05:30:27;10.40;99.90
54898;DHT22;40800;52.704;6.398;2023-03-14T05:32:53;9.60;99.90
54898;DHT22;40800;52.704;6.398;2023-03-14T05:35:19;10.30;99.90
54898;DHT22;40800;52.704;6.398;2023-03-14T05:37:45;10.40;99.90
54898;DHT22;40800;52.704;6.398;2023-03-14T05:40:11;10.20;99.90
54898;DHT22;40800;52.704;6.398;2023-03-14T05:42:36;9.90;99.90
54898;DHT22;40800;52.704;6.398;2023-03-14T05:45:02;10.20;99.90
54898;DHT22;40800;52.704;6.398;2023-03-14T05:47:28;10.20;99.90
54898;DHT22;40800;52.704;6.398;2023-03-14T05:49:53;10.20;99.90
54898;DHT22;40800;52.704;6.398;2023-03-14T05:52:19;9.50;99.90
54898;DHT22;40800;52.704;6.398;2023-03-14T05:54:44;10.30;99.90
54898;DHT22;40800;52.704;6.398;2023-03-14T05:57:10;10.30;99.90
54898;DHT22;40800;52.704;6.398;2023-03-14T05:59:35;10.30;99.90
54898;DHT22;40800;52.704;6.398;2023-03-14T06:02:01;10.10;99.90
54898;DHT22;40800;52.704;6.398;2023-03-14T06:04:26;10.40;99.90
54898;DHT22;40800;52.704;6.398;2023-03-14T06:06:52;10.30;99.90
54898;DHT22;40800;52.704;6.398;2023-03-14T06:09:17;10.40;99.90
54898;DHT22;40800;52.704;6.398;2023-03-14T06:11:45;10.30;99.90
54898;DHT22;40800;52.704;6.398;2023-03-14T06:14:11;10.40;99.90
54898;DHT22;40800;52.704;6.398;2023-03-14T06:16:37;10.50;99.90
54898;DHT22;40800;52.704;6.398;2023-03-14T06:19:02;10.20;99.90
54898;DHT22;40800;52.704;6.398;2023-03-14T06:21:28;9.50;99.90
54898;DHT22;40800;52.704;6.398;2023-03-14T06:23:53;9.60;99.90
54898;DHT22;40800;52.704;6.398;2023-03-14T06:26:19;10.40;99.90
54898;DHT22;40800;52.704;6.398;2023-03-14T06:28:44;10.30;99.90
54898;DHT22;40800;52.704;6.398;2023-03-14T06:31:10;10.40;99.90
54898;DHT22;40800;52.704;6.398;2023-03-14T06:33:36;10.50;99.90
54898;DHT22;40800;52.704;6.398;2023-03-14T06:36:01;10.30;99.90
54898;DHT22;40800;52.704;6.398;2023-03-14T06:38:27;10.20;99.90
54898;DHT22;40800;52.704;6.398;2023-03-14T06:40:52;9.50;99.90
54898;DHT22;40800;52.704;6.398;2023-03-14T06:43:18;9.60;99.90
54898;DHT22;40800;52.704;6.398;2023-03-14T06:45:43;10.30;99.90
54898;DHT22;40800;52.704;6.398;2023-03-14T06:48:09;9.60;99.90
54898;DHT22;40800;52.704;6.398;2023-03-14T06:50:35;10.40;99.90
54898;DHT22;40800;52.704;6.398;2023-03-14T06:53:01;9.70;99.90
54898;DHT22;40800;52.704;6.398;2023-03-14T06:55:26;10.50;99.90
54898;DHT22;40800;52.704;6.398;2023-03-14T06:57:52;10.40;99.90
54898;DHT22;40800;52.704;6.398;2023-03-14T07:00:18;9.80;99.90
54898;DHT22;40800;52.704;6.398;2023-03-14T07:02:43;9.70;99.90
54898;DHT22;40800;52.704;6.398;2023-03-14T07:05:09;10.40;99.90
54898;DHT22;40800;52.704;6.398;2023-03-14T07:07:38;10.60;99.90
54898;DHT22;40800;52.704;6.398;2023-03-14T07:10:04;9.60;99.90
54898;DHT22;40800;52.704;6.398;2023-03-14T07:12:29;9.40;99.90
54898;DHT22;40800;52.704;6.398;2023-03-14T07:14:55;9.60;99.90
54898;DHT22;40800;52.704;6.398;2023-03-14T07:17:20;9.10;99.90
54898;DHT22;40800;52.704;6.398;2023-03-14T07:19:46;9.30;99.90
54898;DHT22;40800;52.704;6.398;2023-03-14T07:22:11;9.70;99.90
54898;DHT22;40800;52.704;6.398;2023-03-14T07:24:37;8.90;99.90
54898;DHT22;40800;52.704;6.398;2023-03-14T07:27:03;9.30;99.90
54898;DHT22;40800;52.704;6.398;2023-03-14T07:29:28;8.70;99.90
54898;DHT22;40800;52.704;6.398;2023-03-14T07:31:54;8.80;99.90
54898;DHT22;40800;52.704;6.398;2023-03-14T07:34:19;8.60;99.90
54898;DHT22;40800;52.704;6.398;2023-03-14T07:36:45;8.50;99.90
54898;DHT22;40800;52.704;6.398;2023-03-14T07:39:10;8.90;99.90
54898;DHT22;40800;52.704;6.398;2023-03-14T07:41:36;8.50;99.90
54898;DHT22;40800;52.704;6.398;2023-03-14T07:44:01;8.20;99.90
54898;DHT22;40800;52.704;6.398;2023-03-14T07:46:27;8.40;99.90
54898;DHT22;40800;52.704;6.398;2023-03-14T07:48:53;8.10;99.90
54898;DHT22;40800;52.704;6.398;2023-03-14T07:51:18;8.80;99.90
54898;DHT22;40800;52.704;6.398;2023-03-14T07:53:44;7.80;99.90
54898;DHT22;40800;52.704;6.398;2023-03-14T07:56:11;8.20;99.90
54898;DHT22;40800;52.704;6.398;2023-03-14T07:58:36;7.80;99.90
54898;DHT22;40800;52.704;6.398;2023-03-14T08:01:02;7.70;99.90
54898;DHT22;40800;52.704;6.398;2023-03-14T08:03:28;8.40;99.90
54898;DHT22;40800;52.704;6.398;2023-03-14T08:05:53;8.20;99.90
54898;DHT22;40800;52.704;6.398;2023-03-14T08:08:19;8.00;99.90
54898;DHT22;40800;52.704;6.398;2023-03-14T08:10:45;7.20;99.90
54898;DHT22;40800;52.704;6.398;2023-03-14T08:13:11;7.40;99.90
54898;DHT22;40800;52.704;6.398;2023-03-14T08:15:37;7.20;99.90
54898;DHT22;40800;52.704;6.398;2023-03-14T08:18:03;7.80;99.90
54898;DHT22;40800;52.704;6.398;2023-03-14T08:20:29;7.80;99.90
54898;DHT22;40800;52.704;6.398;2023-03-14T08:22:59;7.60;99.90
54898;DHT22;40800;52.704;6.398;2023-03-14T08:25:25;7.10;99.90
54898;DHT22;40800;52.704;6.398;2023-03-14T08:27:51;7.30;99.90
54898;DHT22;40800;52.704;6.398;2023-03-14T08:30:19;7.00;99.90
54898;DHT22;40800;52.704;6.398;2023-03-14T08:32:45;7.60;99.90
54898;DHT22;40800;52.704;6.398;2023-03-14T08:35:10;7.00;99.90
54898;DHT22;40800;52.704;6.398;2023-03-14T08:37:37;7.20;99.90
54898;DHT22;40800;52.704;6.398;2023-03-14T08:40:04;7.10;99.90
54898;DHT22;40800;52.704;6.398;2023-03-14T08:42:32;7.10;99.90
54898;DHT22;40800;52.704;6.398;2023-03-14T08:44:58;7.30;99.90
54898;DHT22;40800;52.704;6.398;2023-03-14T08:47:24;7.10;99.90
54898;DHT22;40800;52.704;6.398;2023-03-14T08:49:49;7.60;99.90
54898;DHT22;40800;52.704;6.398;2023-03-14T08:52:15;7.60;99.90
54898;DHT22;40800;52.704;6.398;2023-03-14T08:54:44;7.00;99.90
54898;DHT22;40800;52.704;6.398;2023-03-14T08:57:10;7.10;99.90
54898;DHT22;40800;52.704;6.398;2023-03-14T08:59:36;7.70;99.90
54898;DHT22;40800;52.704;6.398;2023-03-14T09:02:02;7.50;99.90
54898;DHT22;40800;52.704;6.398;2023-03-14T09:04:32;7.40;99.90
54898;DHT22;40800;52.704;6.398;2023-03-14T09:06:58;7.20;99.90
54898;DHT22;40800;52.704;6.398;2023-03-14T09:09:25;7.20;99.90
54898;DHT22;40800;52.704;6.398;2023-03-14T09:11:55;7.70;99.90
54898;DHT22;40800;52.704;6.398;2023-03-14T09:14:21;7.70;99.90
54898;DHT22;40800;52.704;6.398;2023-03-14T09:16:46;7.70;99.90
54898;DHT22;40800;52.704;6.398;2023-03-14T09:19:12;7.80;99.90
54898;DHT22;40800;52.704;6.398;2023-03-14T09:21:37;7.50;99.90
54898;DHT22;40800;52.704;6.398;2023-03-14T09:24:04;7.50;99.90
54898;DHT22;40800;52.704;6.398;2023-03-14T09:26:30;8.00;99.90
54898;DHT22;40800;52.704;6.398;2023-03-14T09:28:55;7.80;99.90
54898;DHT22;40800;52.704;6.398;2023-03-14T09:31:21;8.00;99.90
54898;DHT22;40800;52.704;6.398;2023-03-14T09:33:46;7.80;99.90
54898;DHT22;40800;52.704;6.398;2023-03-14T09:36:12;8.10;99.90
54898;DHT22;40800;52.704;6.398;2023-03-14T09:38:38;8.50;99.90
54898;DHT22;40800;52.704;6.398;2023-03-14T09:41:13;9.50;99.90
54898;DHT22;40800;52.704;6.398;2023-03-14T09:43:40;8.60;99.90
54898;DHT22;40800;52.704;6.398;2023-03-14T09:46:09;8.50;99.90
54898;DHT22;40800;52.704;6.398;2023-03-14T09:48:36;8.70;99.90
54898;DHT22;40800;52.704;6.398;2023-03-14T09:51:06;8.50;99.90
54898;DHT22;40800;52.704;6.398;2023-03-14T09:53:40;8.80;99.90
54898;DHT22;40800;52.704;6.398;2023-03-14T09:56:16;8.70;99.90
54898;DHT22;40800;52.704;6.398;2023-03-14T09:58:45;8.80;99.90
54898;DHT22;40800;52.704;6.398;2023-03-14T10:01:16;8.80;99.90
54898;DHT22;40800;52.704;6.398;2023-03-14T10:03:44;8.80;99.90
54898;DHT22;40800;52.704;6.398;2023-03-14T10:06:14;8.90;99.90
54898;DHT22;40800;52.704;6.398;2023-03-14T10:08:44;8.70;99.90
54898;DHT22;40800;52.704;6.398;2023-03-14T10:11:15;8.80;99.90
54898;DHT22;40800;52.704;6.398;2023-03-14T10:14:06;8.50;99.90
54898;DHT22;40800;52.704;6.398;2023-03-14T10:16:37;8.30;99.90
54898;DHT22;40800;52.704;6.398;2023-03-14T10:19:09;8.30;99.90
54898;DHT22;40800;52.704;6.398;2023-03-14T10:21:43;8.20;99.90
54898;DHT22;40800;52.704;6.398;2023-03-14T10:24:26;8.40;99.90
54898;DHT22;40800;52.704;6.398;2023-03-14T10:26:54;8.20;99.90
54898;DHT22;40800;52.704;6.398;2023-03-14T10:29:20;8.20;99.90
54898;DHT22;40800;52.704;6.398;2023-03-14T10:32:00;8.20;99.90
54898;DHT22;40800;52.704;6.398;2023-03-14T10:34:32;8.20;99.90
54898;DHT22;40800;52.704;6.398;2023-03-14T10:37:21;8.40;99.90
54898;DHT22;40800;52.704;6.398;2023-03-14T10:39:49;8.40;99.90
54898;DHT22;40800;52.704;6.398;2023-03-14T10:42:21;8.40;99.90
54898;DHT22;40800;52.704;6.398;2023-03-14T10:44:54;8.40;99.90
54898;DHT22;40800;52.704;6.398;2023-03-14T10:47:23;8.60;99.90
54898;DHT22;40800;52.704;6.398;2023-03-14T10:49:49;8.40;99.90
54898;DHT22;40800;52.704;6.398;2023-03-14T10:52:19;8.40;99.90
54898;DHT22;40800;52.704;6.398;2023-03-14T10:54:49;8.20;99.90
54898;DHT22;40800;52.704;6.398;2023-03-14T10:57:20;8.30;99.90
54898;DHT22;40800;52.704;6.398;2023-03-14T10:59:46;8.30;99.90
54898;DHT22;40800;52.704;6.398;2023-03-14T11:05:30;8.70;99.90
54898;DHT22;40800;52.704;6.398;2023-03-14T11:08:07;8.60;99.90
54898;DHT22;40800;52.704;6.398;2023-03-14T11:10:42;8.70;99.90
54898;DHT22;40800;52.704;6.398;2023-03-14T11:16:22;8.60;99.90
54898;DHT22;40800;52.704;6.398;2023-03-14T11:26:51;8.40;99.90
54898;DHT22;40800;52.704;6.398;2023-03-14T11:34:55;8.60;99.90
54898;DHT22;40800;52.704;6.398;2023-03-14T11:38:16;8.60;99.90
54898;DHT22;40800;52.704;6.398;2023-03-14T11:40:23;8.60;99.90
54898;DHT22;40800;52.704;6.398;2023-03-14T11:45:35;9.40;99.90
54898;DHT22;40800;52.704;6.398;2023-03-14T11:50:52;9.80;99.90
54898;DHT22;40800;52.704;6.398;2023-03-14T11:55:58;10.00;99.90
54898;DHT22;40800;52.704;6.398;2023-03-14T11:58:27;10.00;99.90
54898;DHT22;40800;52.704;6.398;2023-03-14T12:00:55;9.80;99.90
54898;DHT22;40800;52.704;6.398;2023-03-14T12:03:42;9.90;99.90
54898;DHT22;40800;52.704;6.398;2023-03-14T12:08:55;9.70;99.90
54898;DHT22;40800;52.704;6.398;2023-03-14T12:11:40;10.00;99.90
54898;DHT22;40800;52.704;6.398;2023-03-14T12:14:20;10.20;99.90
54898;DHT22;40800;52.704;6.398;2023-03-14T12:16:47;10.40;99.90
54898;DHT22;40800;52.704;6.398;2023-03-14T12:19:23;10.30;99.90
54898;DHT22;40800;52.704;6.398;2023-03-14T12:24:26;9.90;99.90
54898;DHT22;40800;52.704;6.398;2023-03-14T12:26:54;9.80;99.90
54898;DHT22;40800;52.704;6.398;2023-03-14T12:29:20;9.90;99.90
54898;DHT22;40800;52.704;6.398;2023-03-14T12:34:32;10.70;99.90
54898;DHT22;40800;52.704;6.398;2023-03-14T12:37:09;10.30;99.90
54898;DHT22;40800;52.704;6.398;2023-03-14T12:45:23;10.70;99.90
54898;DHT22;40800;52.704;6.398;2023-03-14T12:48:20;11.30;99.90
54898;DHT22;40800;52.704;6.398;2023-03-14T12:51:02;12.00;99.90
54898;DHT22;40800;52.704;6.398;2023-03-14T12:56:28;11.20;99.90
54898;DHT22;40800;52.704;6.398;2023-03-14T13:01:54;10.20;99.90
54898;DHT22;40800;52.704;6.398;2023-03-14T13:04:30;9.90;99.90
54898;DHT22;40800;52.704;6.398;2023-03-14T13:06:59;9.40;99.90
54898;DHT22;40800;52.704;6.398;2023-03-14T13:11:54;10.10;99.90
54898;DHT22;40800;52.704;6.398;2023-03-14T13:14:20;9.90;99.90
54898;DHT22;40800;52.704;6.398;2023-03-14T13:16:49;9.40;99.90
54898;DHT22;40800;52.704;6.398;2023-03-14T13:19:26;9.30;99.90
54898;DHT22;40800;52.704;6.398;2023-03-14T13:21:56;9.70;99.90
54898;DHT22;40800;52.704;6.398;2023-03-14T13:24:26;9.90;99.90
54898;DHT22;40800;52.704;6.398;2023-03-14T13:26:55;9.50;99.90
54898;DHT22;40800;52.704;6.398;2023-03-14T13:29:29;9.30;99.90
54898;DHT22;40800;52.704;6.398;2023-03-14T13:32:01;9.50;99.90
54898;DHT22;40800;52.704;6.398;2023-03-14T13:34:32;10.30;99.90
54898;DHT22;40800;52.704;6.398;2023-03-14T13:36:58;10.90;99.90
54898;DHT22;40800;52.704;6.398;2023-03-14T13:39:25;11.20;99.90
54898;DHT22;40800;52.704;6.398;2023-03-14T13:41:52;11.60;99.90
54898;DHT22;40800;52.704;6.398;2023-03-14T13:44:39;11.60;99.90
54898;DHT22;40800;52.704;6.398;2023-03-14T13:47:10;11.40;99.90
54898;DHT22;40800;52.704;6.398;2023-03-14T13:49:37;11.30;99.90
54898;DHT22;40800;52.704;6.398;2023-03-14T13:52:04;10.90;99.90
54898;DHT22;40800;52.704;6.398;2023-03-14T13:54:31;11.30;99.90
54898;DHT22;40800;52.704;6.398;2023-03-14T13:57:04;11.80;99.90
54898;DHT22;40800;52.704;6.398;2023-03-14T13:59:34;11.60;99.90
54898;DHT22;40800;52.704;6.398;2023-03-14T14:02:13;10.30;99.90
54898;DHT22;40800;52.704;6.398;2023-03-14T14:04:39;10.40;99.90
54898;DHT22;40800;52.704;6.398;2023-03-14T14:07:10;10.70;99.90
54898;DHT22;40800;52.704;6.398;2023-03-14T14:09:41;11.40;99.90
54898;DHT22;40800;52.704;6.398;2023-03-14T14:12:10;10.90;99.90
54898;DHT22;40800;52.704;6.398;2023-03-14T14:17:18;9.60;99.90
54898;DHT22;40800;52.704;6.398;2023-03-14T14:19:45;8.90;99.90
54898;DHT22;40800;52.704;6.398;2023-03-14T14:22:11;8.70;99.90
54898;DHT22;40800;52.704;6.398;2023-03-14T14:24:37;8.40;99.90
54898;DHT22;40800;52.704;6.398;2023-03-14T14:27:27;8.10;1.00
54898;DHT22;40800;52.704;6.398;2023-03-14T14:30:32;8.00;1.00
54898;DHT22;40800;52.704;6.398;2023-03-14T14:32:51;8.00;99.90
54898;DHT22;40800;52.704;6.398;2023-03-14T14:35:32;7.80;99.90
54898;DHT22;40800;52.704;6.398;2023-03-14T14:37:58;7.50;1.00
54898;DHT22;40800;52.704;6.398;2023-03-14T14:40:26;7.30;99.90
54898;DHT22;40800;52.704;6.398;2023-03-14T14:42:53;7.20;99.90
54898;DHT22;40800;52.704;6.398;2023-03-14T14:45:22;7.90;99.90
54898;DHT22;40800;52.704;6.398;2023-03-14T14:48:11;9.10;99.90
54898;DHT22;40800;52.704;6.398;2023-03-14T14:50:48;10.10;99.90
54898;DHT22;40800;52.704;6.398;2023-03-14T14:53:41;10.30;99.90
54898;DHT22;40800;52.704;6.398;2023-03-14T14:56:25;9.30;96.60
54898;DHT22;40800;52.704;6.398;2023-03-14T14:58:57;8.60;99.90
54898;DHT22;40800;52.704;6.398;2023-03-14T15:01:24;8.70;99.90
54898;DHT22;40800;52.704;6.398;2023-03-14T15:03:55;8.80;99.90
54898;DHT22;40800;52.704;6.398;2023-03-14T15:06:22;8.40;1.00
54898;DHT22;40800;52.704;6.398;2023-03-14T15:08:49;8.50;1.00
54898;DHT22;40800;52.704;6.398;2023-03-14T15:11:19;8.20;99.90
54898;DHT22;40800;52.704;6.398;2023-03-14T15:13:45;7.90;99.90
54898;DHT22;40800;52.704;6.398;2023-03-14T15:16:12;7.60;1.00
54898;DHT22;40800;52.704;6.398;2023-03-14T15:18:39;7.80;31.40
54898;DHT22;40800;52.704;6.398;2023-03-14T15:21:05;8.60;99.90
54898;DHT22;40800;52.704;6.398;2023-03-14T15:23:30;9.30;1.00
54898;DHT22;40800;52.704;6.398;2023-03-14T15:25:56;9.70;99.90
54898;DHT22;40800;52.704;6.398;2023-03-14T15:28:24;10.30;1.00
54898;DHT22;40800;52.704;6.398;2023-03-14T15:30:53;10.00;99.90
54898;DHT22;40800;52.704;6.398;2023-03-14T15:33:18;9.30;1.00
54898;DHT22;40800;52.704;6.398;2023-03-14T15:35:45;8.60;99.90
54898;DHT22;40800;52.704;6.398;2023-03-14T15:38:12;8.10;1.00
54898;DHT22;40800;52.704;6.398;2023-03-14T15:40:38;7.60;99.90
54898;DHT22;40800;52.704;6.398;2023-03-14T15:43:04;7.00;99.90
54898;DHT22;40800;52.704;6.398;2023-03-14T15:45:30;6.50;99.90
54898;DHT22;40800;52.704;6.398;2023-03-14T15:47:55;6.20;1.00
54898;DHT22;40800;52.704;6.398;2023-03-14T15:50:21;6.20;99.90
54898;DHT22;40800;52.704;6.398;2023-03-14T15:52:46;6.30;99.90
54898;DHT22;40800;52.704;6.398;2023-03-14T15:55:12;6.40;99.90
54898;DHT22;40800;52.704;6.398;2023-03-14T15:57:40;6.50;1.00
54898;DHT22;40800;52.704;6.398;2023-03-14T16:00:08;6.50;99.90
54898;DHT22;40800;52.704;6.398;2023-03-14T16:02:36;6.50;99.90
54898;DHT22;40800;52.704;6.398;2023-03-14T16:05:05;6.60;57.70
54898;DHT22;40800;52.704;6.398;2023-03-14T16:07:31;6.80;94.50
54898;DHT22;40800;52.704;6.398;2023-03-14T16:09:58;6.90;1.00
54898;DHT22;40800;52.704;6.398;2023-03-14T16:12:24;7.00;1.00
54898;DHT22;40800;52.704;6.398;2023-03-14T16:14:49;6.90;1.00
54898;DHT22;40800;52.704;6.398;2023-03-14T16:17:15;6.90;1.00
54898;DHT22;40800;52.704;6.398;2023-03-14T16:19:40;7.00;1.00
54898;DHT22;40800;52.704;6.398;2023-03-14T16:22:06;6.90;99.90
54898;DHT22;40800;52.704;6.398;2023-03-14T16:24:32;6.70;99.90
54898;DHT22;40800;52.704;6.398;2023-03-14T16:26:57;6.60;77.60
54898;DHT22;40800;52.704;6.398;2023-03-14T16:29:23;6.50;1.00
54898;DHT22;40800;52.704;6.398;2023-03-14T16:31:48;6.40;1.00
54898;DHT22;40800;52.704;6.398;2023-03-14T16:34:14;6.20;1.00
54898;DHT22;40800;52.704;6.398;2023-03-14T16:36:39;6.10;99.90
54898;DHT22;40800;52.704;6.398;2023-03-14T16:39:05;6.00;99.90
54898;DHT22;40800;52.704;6.398;2023-03-14T16:41:31;6.00;99.90